sensor_id;sensor_type;location;lat;lon;timestamp;pressure;altitude;pressure_sealevel;temperature;humidity
21824;BME280;11074;48.596;9.238;2023-04-24T00:00:16;97226.03;;;13.82;78.93
21824;BME280;11074;48.596;9.238;2023-04-24T00:02:43;97230.69;;;13.77;78.91
21824;BME280;11074;48.596;9.238;2023-04-24T00:05:14;97233.28;;;13.82;78.61
21824;BME280;11074;48.596;9.238;2023-04-24T00:07:41;97235.50;;;13.93;78.30
21824;BME280;11074;48.596;9.238;2023-04-24T00:10:08;97229.03;;;13.81;78.68
21824;BME280;11074;48.596;9.238;2023-04-24T00:12:34;97241.25;;;13.87;78.15
21824;BME280;11074;48.596;9.238;2023-04-24T00:15:00;97245.56;;;13.88;77.86
21824;BME280;11074;48.596;9.238;2023-04-24T00:17:26;97243.53;;;13.80;78.64
21824;BME280;11074;48.596;9.238;2023-04-24T00:19:52;97251.50;;;13.85;78.24
21824;BME280;11074;48.596;9.238;2023-04-24T00:22:25;97254.50;;;13.83;78.38
21824;BME280;11074;48.596;9.238;2023-04-24T00:24:50;97256.66;;;13.81;79.06
21824;BME280;11074;48.596;9.238;2023-04-24T00:27:16;97255.97;;;13.76;78.28
21824;BME280;11074;48.596;9.238;2023-04-24T00:29:42;97250.31;;;13.77;79.13
21824;BME280;11074;48.596;9.238;2023-04-24T00:32:07;97239.84;;;13.76;78.37
21824;BME280;11074;48.596;9.238;2023-04-24T00:34:33;97240.63;;;13.76;78.25
21824;BME280;11074;48.596;9.238;2023-04-24T00:36:59;97245.69;;;13.64;78.08
21824;BME280;11074;48.596;9.238;2023-04-24T00:39:24;97240.53;;;13.68;79.64
21824;BME280;11074;48.596;9.238;2023-04-24T00:41:51;97243.28;;;13.63;78.83
21824;BME280;11074;48.596;9.238;2023-04-24T00:44:17;97244.56;;;13.52;76.25
21824;BME280;11074;48.596;9.238;2023-04-24T00:46:43;97241.88;;;13.52;76.57
21824;BME280;11074;48.596;9.238;2023-04-24T00:49:09;97232.13;;;13.56;76.98
21824;BME280;11074;48.596;9.238;2023-04-24T00:51:35;97231.78;;;13.62;77.17
21824;BME280;11074;48.596;9.238;2023-04-24T00:54:02;97237.56;;;13.69;77.18
21824;BME280;11074;48.596;9.238;2023-04-24T00:56:28;97233.22;;;13.55;78.32
21824;BME280;11074;48.596;9.238;2023-04-24T00:58:55;97238.22;;;13.61;78.31
21824;BME280;11074;48.596;9.238;2023-04-24T01:01:21;97229.94;;;13.58;77.29
21824;BME280;11074;48.596;9.238;2023-04-24T01:03:49;97227.84;;;13.55;78.68
21824;BME280;11074;48.596;9.238;2023-04-24T01:06:18;97221.88;;;13.58;78.45
21824;BME280;11074;48.596;9.238;2023-04-24T01:08:46;97215.84;;;13.66;78.00
21824;BME280;11074;48.596;9.238;2023-04-24T01:11:13;97208.19;;;13.59;78.91
21824;BME280;11074;48.596;9.238;2023-04-24T01:13:39;97214.28;;;13.65;78.33
21824;BME280;11074;48.596;9.238;2023-04-24T01:16:06;97205.63;;;13.68;78.12
21824;BME280;11074;48.596;9.238;2023-04-24T01:18:31;97214.75;;;13.67;77.90
21824;BME280;11074;48.596;9.238;2023-04-24T01:20:59;97204.31;;;13.65;78.16
21824;BME280;11074;48.596;9.238;2023-04-24T01:23:28;97215.25;;;13.69;78.09
21824;BME280;11074;48.596;9.238;2023-04-24T01:25:54;97220.13;;;13.67;78.77
21824;BME280;11074;48.596;9.238;2023-04-24T01:28:22;97220.41;;;13.65;78.98
21824;BME280;11074;48.596;9.238;2023-04-24T01:30:48;97207.88;;;13.61;79.73
21824;BME280;11074;48.596;9.238;2023-04-24T01:33:14;97202.50;;;13.61;79.59
21824;BME280;11074;48.596;9.238;2023-04-24T01:35:40;97208.78;;;13.56;79.46
21824;BME280;11074;48.596;9.238;2023-04-24T01:38:06;97205.19;;;13.61;78.45
21824;BME280;11074;48.596;9.238;2023-04-24T01:40:32;97207.38;;;13.59;79.01
21824;BME280;11074;48.596;9.238;2023-04-24T01:42:58;97205.28;;;13.56;79.28
21824;BME280;11074;48.596;9.238;2023-04-24T01:45:24;97193.94;;;13.59;79.54
21824;BME280;11074;48.596;9.238;2023-04-24T01:47:50;97201.78;;;13.55;79.31
21824;BME280;11074;48.596;9.238;2023-04-24T01:50:17;97201.00;;;13.55;79.31
21824;BME280;11074;48.596;9.238;2023-04-24T01:52:43;97191.06;;;13.55;79.56
21824;BME280;11074;48.596;9.238;2023-04-24T01:55:09;97198.84;;;13.57;79.80
21824;BME280;11074;48.596;9.238;2023-04-24T01:57:36;97202.28;;;13.57;79.88
21824;BME280;11074;48.596;9.238;2023-04-24T02:00:03;97212.03;;;13.53;79.28
21824;BME280;11074;48.596;9.238;2023-04-24T02:02:33;97198.84;;;13.57;79.34
21824;BME280;11074;48.596;9.238;2023-04-24T02:04:59;97200.41;;;13.58;79.62
21824;BME280;11074;48.596;9.238;2023-04-24T02:07:25;97202.91;;;13.54;80.35
21824;BME280;11074;48.596;9.238;2023-04-24T02:09:50;97198.84;;;13.57;79.75
21824;BME280;11074;48.596;9.238;2023-04-24T02:12:16;97199.59;;;13.57;80.20
21824;BME280;11074;48.596;9.238;2023-04-24T02:14:43;97213.84;;;13.58;79.96
21824;BME280;11074;48.596;9.238;2023-04-24T02:17:10;97211.06;;;13.63;80.30
21824;BME280;11074;48.596;9.238;2023-04-24T02:19:38;97206.22;;;13.65;81.81
21824;BME280;11074;48.596;9.238;2023-04-24T02:22:04;97216.66;;;13.66;81.69
21824;BME280;11074;48.596;9.238;2023-04-24T02:24:30;97209.97;;;13.64;82.81
21824;BME280;11074;48.596;9.238;2023-04-24T02:26:56;97202.72;;;13.64;83.31
21824;BME280;11074;48.596;9.238;2023-04-24T02:29:21;97212.44;;;13.60;83.71
21824;BME280;11074;48.596;9.238;2023-04-24T02:31:47;97207.56;;;13.49;84.21
21824;BME280;11074;48.596;9.238;2023-04-24T02:34:13;97200.00;;;13.51;84.14
21824;BME280;11074;48.596;9.238;2023-04-24T02:36:38;97198.88;;;13.38;84.69
21824;BME280;11074;48.596;9.238;2023-04-24T02:39:04;97204.28;;;13.19;85.22
21824;BME280;11074;48.596;9.238;2023-04-24T02:41:29;97204.13;;;13.11;86.10
21824;BME280;11074;48.596;9.238;2023-04-24T02:43:58;97205.06;;;13.20;86.24
21824;BME280;11074;48.596;9.238;2023-04-24T02:46:25;97202.16;;;13.16;86.51
21824;BME280;11074;48.596;9.238;2023-04-24T02:48:51;97205.44;;;13.13;86.09
21824;BME280;11074;48.596;9.238;2023-04-24T02:51:17;97205.34;;;13.18;87.15
21824;BME280;11074;48.596;9.238;2023-04-24T02:53:42;97213.31;;;13.23;86.47
21824;BME280;11074;48.596;9.238;2023-04-24T02:56:08;97203.09;;;13.25;86.60
21824;BME280;11074;48.596;9.238;2023-04-24T02:58:34;97212.03;;;13.21;86.53
21824;BME280;11074;48.596;9.238;2023-04-24T03:01:00;97213.97;;;13.15;87.42
21824;BME280;11074;48.596;9.238;2023-04-24T03:03:26;97210.50;;;13.15;87.32
21824;BME280;11074;48.596;9.238;2023-04-24T03:05:52;97208.47;;;13.07;88.08
21824;BME280;11074;48.596;9.238;2023-04-24T03:08:18;97208.50;;;13.02;88.26
21824;BME280;11074;48.596;9.238;2023-04-24T03:10:44;97209.31;;;13.02;88.96
21824;BME280;11074;48.596;9.238;2023-04-24T03:13:09;97214.38;;;13.09;88.69
21824;BME280;11074;48.596;9.238;2023-04-24T03:15:35;97213.56;;;13.08;88.79
21824;BME280;11074;48.596;9.238;2023-04-24T03:18:01;97200.56;;;13.15;88.94
21824;BME280;11074;48.596;9.238;2023-04-24T03:20:28;97187.06;;;13.20;88.81
21824;BME280;11074;48.596;9.238;2023-04-24T03:22:53;97190.53;;;13.21;88.80
21824;BME280;11074;48.596;9.238;2023-04-24T03:25:19;97192.97;;;13.22;88.58
21824;BME280;11074;48.596;9.238;2023-04-24T03:27:46;97183.31;;;13.21;88.16
21824;BME280;11074;48.596;9.238;2023-04-24T03:30:11;97193.72;;;13.23;88.39
21824;BME280;11074;48.596;9.238;2023-04-24T03:32:37;97182.72;;;13.24;88.04
21824;BME280;11074;48.596;9.238;2023-04-24T03:35:06;97175.81;;;13.18;88.35
21824;BME280;11074;48.596;9.238;2023-04-24T03:37:33;97189.81;;;13.15;88.58
21824;BME280;11074;48.596;9.238;2023-04-24T03:39:58;97192.22;;;12.98;89.70
21824;BME280;11074;48.596;9.238;2023-04-24T03:42:24;97188.88;;;13.06;89.20
21824;BME280;11074;48.596;9.238;2023-04-24T03:44:49;97193.16;;;13.07;89.27
21824;BME280;11074;48.596;9.238;2023-04-24T03:47:15;97190.50;;;13.07;89.58
21824;BME280;11074;48.596;9.238;2023-04-24T03:49:41;97190.63;;;12.97;89.39
21824;BME280;11074;48.596;9.238;2023-04-24T03:52:07;97191.66;;;13.01;89.19
21824;BME280;11074;48.596;9.238;2023-04-24T03:54:32;97188.00;;;12.92;89.77
21824;BME280;11074;48.596;9.238;2023-04-24T03:56:58;97189.25;;;12.81;90.21
21824;BME280;11074;48.596;9.238;2023-04-24T03:59:24;97203.22;;;12.78;90.99
21824;BME280;11074;48.596;9.238;2023-04-24T04:01:49;97191.84;;;12.86;90.37
21824;BME280;11074;48.596;9.238;2023-04-24T04:04:15;97188.50;;;12.94;89.97
21824;BME280;11074;48.596;9.238;2023-04-24T04:06:41;97186.31;;;12.96;89.72
21824;BME280;11074;48.596;9.238;2023-04-24T04:09:07;97199.47;;;12.98;89.48
21824;BME280;11074;48.596;9.238;2023-04-24T04:11:34;97199.53;;;12.93;89.71
21824;BME280;11074;48.596;9.238;2023-04-24T04:14:01;97193.94;;;12.89;89.51
21824;BME280;11074;48.596;9.238;2023-04-24T04:16:27;97202.56;;;12.86;89.45
21824;BME280;11074;48.596;9.238;2023-04-24T04:18:52;97217.22;;;12.75;90.07
21824;BME280;11074;48.596;9.238;2023-04-24T04:21:18;97212.00;;;12.84;89.91
21824;BME280;11074;48.596;9.238;2023-04-24T04:23:43;97218.16;;;12.84;89.67
21824;BME280;11074;48.596;9.238;2023-04-24T04:26:11;97222.47;;;12.85;89.69
21824;BME280;11074;48.596;9.238;2023-04-24T04:28:38;97228.31;;;12.87;89.11
21824;BME280;11074;48.596;9.238;2023-04-24T04:31:05;97227.88;;;12.80;89.04
21824;BME280;11074;48.596;9.238;2023-04-24T04:33:31;97228.22;;;12.73;89.73
21824;BME280;11074;48.596;9.238;2023-04-24T04:35:57;97239.19;;;12.77;89.56
21824;BME280;11074;48.596;9.238;2023-04-24T04:38:25;97238.53;;;12.66;89.88
21824;BME280;11074;48.596;9.238;2023-04-24T04:40:56;97242.13;;;12.57;89.87
21824;BME280;11074;48.596;9.238;2023-04-24T04:43:23;97251.84;;;12.53;91.00
21824;BME280;11074;48.596;9.238;2023-04-24T04:45:50;97263.44;;;12.67;90.72
21824;BME280;11074;48.596;9.238;2023-04-24T04:48:17;97252.94;;;12.70;90.37
21824;BME280;11074;48.596;9.238;2023-04-24T04:50:44;97281.38;;;12.71;90.25
21824;BME280;11074;48.596;9.238;2023-04-24T04:53:11;97278.22;;;12.64;90.08
21824;BME280;11074;48.596;9.238;2023-04-24T04:55:37;97282.75;;;12.69;90.46
21824;BME280;11074;48.596;9.238;2023-04-24T04:58:03;97279.81;;;12.65;90.55
21824;BME280;11074;48.596;9.238;2023-04-24T05:00:29;97265.63;;;12.65;90.79
21824;BME280;11074;48.596;9.238;2023-04-24T05:02:59;97281.69;;;12.65;90.76
21824;BME280;11074;48.596;9.238;2023-04-24T05:05:25;97286.31;;;12.59;91.26
21824;BME280;11074;48.596;9.238;2023-04-24T05:07:51;97297.28;;;12.63;90.98
21824;BME280;11074;48.596;9.238;2023-04-24T05:10:17;97317.38;;;12.65;91.04
21824;BME280;11074;48.596;9.238;2023-04-24T05:12:42;97328.59;;;12.67;90.96
21824;BME280;11074;48.596;9.238;2023-04-24T05:15:08;97325.19;;;12.62;90.62
21824;BME280;11074;48.596;9.238;2023-04-24T05:17:34;97326.78;;;12.63;90.02
21824;BME280;11074;48.596;9.238;2023-04-24T05:20:00;97328.66;;;12.62;89.58
21824;BME280;11074;48.596;9.238;2023-04-24T05:22:26;97325.81;;;12.54;88.85
21824;BME280;11074;48.596;9.238;2023-04-24T05:24:51;97337.00;;;12.61;88.88
21824;BME280;11074;48.596;9.238;2023-04-24T05:27:17;97344.19;;;12.65;88.32
21824;BME280;11074;48.596;9.238;2023-04-24T05:29:43;97347.88;;;12.69;88.20
21824;BME280;11074;48.596;9.238;2023-04-24T05:32:09;97353.59;;;12.63;86.95
21824;BME280;11074;48.596;9.238;2023-04-24T05:34:34;97358.97;;;12.63;87.22
21824;BME280;11074;48.596;9.238;2023-04-24T05:37:00;97361.13;;;12.61;87.62
21824;BME280;11074;48.596;9.238;2023-04-24T05:39:26;97368.44;;;12.55;87.56
21824;BME280;11074;48.596;9.238;2023-04-24T05:41:52;97371.91;;;12.56;87.61
21824;BME280;11074;48.596;9.238;2023-04-24T05:44:18;97377.50;;;12.59;87.51
21824;BME280;11074;48.596;9.238;2023-04-24T05:46:43;97375.63;;;12.60;87.45
21824;BME280;11074;48.596;9.238;2023-04-24T05:49:09;97371.06;;;12.60;88.26
21824;BME280;11074;48.596;9.238;2023-04-24T05:51:35;97370.31;;;12.55;88.65
21824;BME280;11074;48.596;9.238;2023-04-24T05:54:00;97378.28;;;12.60;89.33
21824;BME280;11074;48.596;9.238;2023-04-24T05:56:27;97390.69;;;12.56;89.50
21824;BME280;11074;48.596;9.238;2023-04-24T05:58:52;97391.47;;;12.56;89.03
21824;BME280;11074;48.596;9.238;2023-04-24T06:01:18;97387.75;;;12.52;88.86
21824;BME280;11074;48.596;9.238;2023-04-24T06:03:45;97392.06;;;12.53;88.66
21824;BME280;11074;48.596;9.238;2023-04-24T06:06:10;97384.78;;;12.54;88.45
21824;BME280;11074;48.596;9.238;2023-04-24T06:08:36;97384.00;;;12.53;88.10
21824;BME280;11074;48.596;9.238;2023-04-24T06:11:02;97383.16;;;12.58;87.79
21824;BME280;11074;48.596;9.238;2023-04-24T06:13:28;97391.94;;;12.63;87.16
21824;BME280;11074;48.596;9.238;2023-04-24T06:15:53;97387.91;;;12.66;87.10
21824;BME280;11074;48.596;9.238;2023-04-24T06:18:19;97392.22;;;12.62;87.37
21824;BME280;11074;48.596;9.238;2023-04-24T06:20:47;97395.13;;;12.65;88.03
21824;BME280;11074;48.596;9.238;2023-04-24T06:23:12;97390.75;;;12.74;88.06
21824;BME280;11074;48.596;9.238;2023-04-24T06:25:38;97388.03;;;12.80;87.54
21824;BME280;11074;48.596;9.238;2023-04-24T06:28:04;97389.59;;;12.81;86.99
21824;BME280;11074;48.596;9.238;2023-04-24T06:30:30;97388.78;;;12.80;86.57
21824;BME280;11074;48.596;9.238;2023-04-24T06:32:56;97392.81;;;12.83;86.64
21824;BME280;11074;48.596;9.238;2023-04-24T06:35:22;97388.47;;;12.87;86.24
21824;BME280;11074;48.596;9.238;2023-04-24T06:37:48;97385.47;;;12.88;85.54
21824;BME280;11074;48.596;9.238;2023-04-24T06:40:14;97384.34;;;12.94;85.54
21824;BME280;11074;48.596;9.238;2023-04-24T06:42:40;97381.66;;;12.94;85.42
21824;BME280;11074;48.596;9.238;2023-04-24T06:45:06;97392.53;;;12.84;83.87
21824;BME280;11074;48.596;9.238;2023-04-24T06:47:32;97385.72;;;12.92;84.25
21824;BME280;11074;48.596;9.238;2023-04-24T06:49:58;97387.03;;;12.94;84.30
21824;BME280;11074;48.596;9.238;2023-04-24T06:52:24;97386.97;;;12.99;84.69
21824;BME280;11074;48.596;9.238;2023-04-24T06:54:50;97390.69;;;13.03;84.12
21824;BME280;11074;48.596;9.238;2023-04-24T06:57:15;97384.50;;;13.08;83.76
21824;BME280;11074;48.596;9.238;2023-04-24T06:59:42;97388.22;;;13.12;82.29
21824;BME280;11074;48.596;9.238;2023-04-24T07:02:08;97390.09;;;13.11;82.59
21824;BME280;11074;48.596;9.238;2023-04-24T07:04:33;97391.09;;;13.15;82.32
21824;BME280;11074;48.596;9.238;2023-04-24T07:06:59;97389.38;;;13.24;82.14
21824;BME280;11074;48.596;9.238;2023-04-24T07:09:26;97393.09;;;13.28;81.83
21824;BME280;11074;48.596;9.238;2023-04-24T07:11:52;97393.63;;;13.30;82.09
21824;BME280;11074;48.596;9.238;2023-04-24T07:14:19;97384.13;;;13.38;81.91
21824;BME280;11074;48.596;9.238;2023-04-24T07:16:46;97393.75;;;13.39;81.54
21824;BME280;11074;48.596;9.238;2023-04-24T07:19:13;97382.88;;;13.30;81.77
21824;BME280;11074;48.596;9.238;2023-04-24T07:21:39;97395.75;;;13.28;81.79
21824;BME280;11074;48.596;9.238;2023-04-24T07:24:05;97402.31;;;13.22;81.61
21824;BME280;11074;48.596;9.238;2023-04-24T07:26:31;97407.72;;;13.17;82.41
21824;BME280;11074;48.596;9.238;2023-04-24T07:28:57;97407.78;;;13.12;82.87
21824;BME280;11074;48.596;9.238;2023-04-24T07:31:23;97413.75;;;13.04;82.97
21824;BME280;11074;48.596;9.238;2023-04-24T07:33:49;97420.53;;;12.97;80.99
21824;BME280;11074;48.596;9.238;2023-04-24T07:36:15;97415.31;;;13.10;81.22
21824;BME280;11074;48.596;9.238;2023-04-24T07:38:45;97423.09;;;13.12;80.56
21824;BME280;11074;48.596;9.238;2023-04-24T07:41:12;97426.22;;;13.19;80.68
21824;BME280;11074;48.596;9.238;2023-04-24T07:43:38;97431.19;;;13.30;80.03
21824;BME280;11074;48.596;9.238;2023-04-24T07:46:03;97440.06;;;13.50;79.26
21824;BME280;11074;48.596;9.238;2023-04-24T07:48:29;97436.66;;;13.63;77.87
21824;BME280;11074;48.596;9.238;2023-04-24T07:50:55;97433.69;;;13.64;75.87
21824;BME280;11074;48.596;9.238;2023-04-24T07:53:20;97449.34;;;13.81;75.95
21824;BME280;11074;48.596;9.238;2023-04-24T07:55:46;97441.69;;;13.88;74.66
21824;BME280;11074;48.596;9.238;2023-04-24T07:58:12;97455.34;;;13.91;73.71
21824;BME280;11074;48.596;9.238;2023-04-24T08:00:37;97447.06;;;13.88;72.75
21824;BME280;11074;48.596;9.238;2023-04-24T08:03:03;97452.28;;;13.98;72.20
21824;BME280;11074;48.596;9.238;2023-04-24T08:05:29;97456.94;;;14.11;69.74
21824;BME280;11074;48.596;9.238;2023-04-24T08:07:56;97456.94;;;14.11;69.82
21824;BME280;11074;48.596;9.238;2023-04-24T08:10:23;97466.09;;;14.10;68.44
21824;BME280;11074;48.596;9.238;2023-04-24T08:12:49;97478.50;;;14.06;66.69
21824;BME280;11074;48.596;9.238;2023-04-24T08:15:15;97465.06;;;14.06;67.32
21824;BME280;11074;48.596;9.238;2023-04-24T08:17:41;97464.91;;;14.16;68.30
21824;BME280;11074;48.596;9.238;2023-04-24T08:20:08;97471.00;;;14.22;68.01
21824;BME280;11074;48.596;9.238;2023-04-24T08:22:39;97476.97;;;14.19;66.81
21824;BME280;11074;48.596;9.238;2023-04-24T08:25:06;97481.13;;;14.30;66.25
21824;BME280;11074;48.596;9.238;2023-04-24T08:27:32;97494.34;;;14.26;66.32
21824;BME280;11074;48.596;9.238;2023-04-24T08:29:58;97491.28;;;14.14;65.61
21824;BME280;11074;48.596;9.238;2023-04-24T08:32:27;97507.81;;;14.08;67.24
21824;BME280;11074;48.596;9.238;2023-04-24T08:34:55;97510.75;;;14.06;66.19
21824;BME280;11074;48.596;9.238;2023-04-24T08:37:26;97505.09;;;13.89;66.26
21824;BME280;11074;48.596;9.238;2023-04-24T08:39:52;97531.28;;;13.55;63.79
21824;BME280;11074;48.596;9.238;2023-04-24T08:42:19;97530.59;;;13.49;62.02
21824;BME280;11074;48.596;9.238;2023-04-24T08:44:47;97510.94;;;13.30;59.93
21824;BME280;11074;48.596;9.238;2023-04-24T08:47:15;97507.63;;;13.38;64.69
21824;BME280;11074;48.596;9.238;2023-04-24T08:49:42;97514.06;;;13.37;64.48
21824;BME280;11074;48.596;9.238;2023-04-24T08:52:08;97517.78;;;13.41;63.83
21824;BME280;11074;48.596;9.238;2023-04-24T08:54:35;97515.09;;;13.41;60.10
21824;BME280;11074;48.596;9.238;2023-04-24T08:57:02;97508.34;;;13.67;62.31
21824;BME280;11074;48.596;9.238;2023-04-24T08:59:30;97510.09;;;13.77;61.73
21824;BME280;11074;48.596;9.238;2023-04-24T09:01:57;97504.50;;;13.92;61.56
21824;BME280;11074;48.596;9.238;2023-04-24T09:04:24;97509.47;;;14.04;60.23
21824;BME280;11074;48.596;9.238;2023-04-24T09:06:55;97509.69;;;14.07;60.46
21824;BME280;11074;48.596;9.238;2023-04-24T09:09:22;97519.19;;;14.00;59.23
21824;BME280;11074;48.596;9.238;2023-04-24T09:11:49;97513.88;;;13.94;61.30
21824;BME280;11074;48.596;9.238;2023-04-24T09:14:17;97525.81;;;13.88;62.99
21824;BME280;11074;48.596;9.238;2023-04-24T09:16:43;97519.88;;;13.68;64.15
21824;BME280;11074;48.596;9.238;2023-04-24T09:19:09;97523.28;;;13.73;61.77
21824;BME280;11074;48.596;9.238;2023-04-24T09:21:35;97523.00;;;13.75;61.04
21824;BME280;11074;48.596;9.238;2023-04-24T09:24:06;97526.34;;;13.67;59.33
21824;BME280;11074;48.596;9.238;2023-04-24T09:26:35;97522.44;;;13.78;59.37
21824;BME280;11074;48.596;9.238;2023-04-24T09:29:03;97517.59;;;13.98;58.87
21824;BME280;11074;48.596;9.238;2023-04-24T09:31:30;97528.13;;;14.14;58.89
21824;BME280;11074;48.596;9.238;2023-04-24T09:34:03;97518.75;;;14.11;58.97
21824;BME280;11074;48.596;9.238;2023-04-24T09:36:36;97525.25;;;14.10;58.90
21824;BME280;11074;48.596;9.238;2023-04-24T09:39:09;97538.94;;;14.09;57.80
21824;BME280;11074;48.596;9.238;2023-04-24T09:41:51;97539.09;;;13.98;60.75
21824;BME280;11074;48.596;9.238;2023-04-24T09:44:20;97543.59;;;14.03;59.86
21824;BME280;11074;48.596;9.238;2023-04-24T09:46:51;97549.34;;;13.96;59.09
21824;BME280;11074;48.596;9.238;2023-04-24T09:49:23;97542.25;;;13.82;60.19
21824;BME280;11074;48.596;9.238;2023-04-24T09:51:50;97556.28;;;13.97;58.84
21824;BME280;11074;48.596;9.238;2023-04-24T09:54:19;97551.78;;;13.93;58.55
21824;BME280;11074;48.596;9.238;2023-04-24T09:56:49;97560.66;;;13.93;57.15
21824;BME280;11074;48.596;9.238;2023-04-24T09:59:17;97558.88;;;13.84;59.01
21824;BME280;11074;48.596;9.238;2023-04-24T10:01:44;97556.66;;;13.91;57.45
21824;BME280;11074;48.596;9.238;2023-04-24T10:04:19;97558.78;;;13.94;55.95
21824;BME280;11074;48.596;9.238;2023-04-24T10:06:48;97572.31;;;13.84;56.18
21824;BME280;11074;48.596;9.238;2023-04-24T10:09:22;97571.59;;;13.78;57.09
21824;BME280;11074;48.596;9.238;2023-04-24T10:11:51;97566.16;;;13.83;57.15
21824;BME280;11074;48.596;9.238;2023-04-24T10:14:19;97553.81;;;13.82;56.26
21824;BME280;11074;48.596;9.238;2023-04-24T10:16:51;97549.75;;;13.85;56.94
21824;BME280;11074;48.596;9.238;2023-04-24T10:19:17;97563.34;;;13.93;55.94
21824;BME280;11074;48.596;9.238;2023-04-24T10:21:46;97553.50;;;14.08;54.61
21824;BME280;11074;48.596;9.238;2023-04-24T10:24:17;97548.63;;;14.28;55.21
21824;BME280;11074;48.596;9.238;2023-04-24T10:26:45;97525.75;;;14.31;54.42
21824;BME280;11074;48.596;9.238;2023-04-24T10:29:13;97531.28;;;14.39;53.53
21824;BME280;11074;48.596;9.238;2023-04-24T10:31:40;97550.16;;;14.53;52.40
21824;BME280;11074;48.596;9.238;2023-04-24T10:34:09;97563.84;;;14.38;50.76
21824;BME280;11074;48.596;9.238;2023-04-24T10:36:59;97556.34;;;14.35;52.35
21824;BME280;11074;48.596;9.238;2023-04-24T10:39:24;97569.34;;;14.28;52.12
21824;BME280;11074;48.596;9.238;2023-04-24T10:41:50;97570.50;;;14.22;53.29
21824;BME280;11074;48.596;9.238;2023-04-24T10:44:17;97583.25;;;14.35;53.75
21824;BME280;11074;48.596;9.238;2023-04-24T10:46:45;97572.47;;;14.53;54.19
21824;BME280;11074;48.596;9.238;2023-04-24T10:49:12;97592.91;;;14.73;53.29
21824;BME280;11074;48.596;9.238;2023-04-24T10:52:00;97588.47;;;14.82;52.58
21824;BME280;11074;48.596;9.238;2023-04-24T10:54:34;97592.59;;;14.93;52.02
21824;BME280;11074;48.596;9.238;2023-04-24T11:00:32;97605.69;;;15.00;51.48
21824;BME280;11074;48.596;9.238;2023-04-24T11:02:40;97614.25;;;15.02;52.64
21824;BME280;11074;48.596;9.238;2023-04-24T11:05:09;97605.94;;;14.85;53.02
21824;BME280;11074;48.596;9.238;2023-04-24T11:08:15;97623.25;;;14.79;54.34
21824;BME280;11074;48.596;9.238;2023-04-24T11:10:57;97627.38;;;14.52;54.16
21824;BME280;11074;48.596;9.238;2023-04-24T11:13:25;97628.41;;;14.75;53.39
21824;BME280;11074;48.596;9.238;2023-04-24T11:16:27;97636.97;;;14.77;54.29
21824;BME280;11074;48.596;9.238;2023-04-24T11:19:09;97632.88;;;14.80;55.06
21824;BME280;11074;48.596;9.238;2023-04-24T11:21:44;97635.22;;;14.86;54.23
21824;BME280;11074;48.596;9.238;2023-04-24T11:29:23;97645.78;;;14.22;53.97
21824;BME280;11074;48.596;9.238;2023-04-24T11:32:16;97635.16;;;14.12;54.86
21824;BME280;11074;48.596;9.238;2023-04-24T11:34:59;97647.22;;;14.14;55.96
21824;BME280;11074;48.596;9.238;2023-04-24T11:37:38;97641.59;;;14.11;56.22
21824;BME280;11074;48.596;9.238;2023-04-24T11:40:07;97645.16;;;14.06;55.42
21824;BME280;11074;48.596;9.238;2023-04-24T11:42:39;97651.03;;;14.08;55.20
21824;BME280;11074;48.596;9.238;2023-04-24T11:45:17;97649.66;;;14.11;56.47
21824;BME280;11074;48.596;9.238;2023-04-24T11:47:44;97648.34;;;14.08;56.12
21824;BME280;11074;48.596;9.238;2023-04-24T11:50:16;97676.41;;;14.02;56.86
21824;BME280;11074;48.596;9.238;2023-04-24T11:52:48;97659.28;;;13.93;56.34
21824;BME280;11074;48.596;9.238;2023-04-24T11:57:42;97652.97;;;14.03;57.48
21824;BME280;11074;48.596;9.238;2023-04-24T12:00:19;97657.91;;;14.19;57.76
21824;BME280;11074;48.596;9.238;2023-04-24T12:02:44;97665.16;;;14.19;56.78
21824;BME280;11074;48.596;9.238;2023-04-24T12:05:26;97658.19;;;14.41;55.83
21824;BME280;11074;48.596;9.238;2023-04-24T12:07:57;97657.81;;;14.48;54.42
21824;BME280;11074;48.596;9.238;2023-04-24T12:10:26;97663.44;;;14.70;53.76
21824;BME280;11074;48.596;9.238;2023-04-24T12:12:53;97662.72;;;14.65;54.52
21824;BME280;11074;48.596;9.238;2023-04-24T12:15:20;97678.22;;;14.73;53.13
21824;BME280;11074;48.596;9.238;2023-04-24T12:17:46;97666.72;;;14.67;53.11
21824;BME280;11074;48.596;9.238;2023-04-24T12:20:14;97672.56;;;14.74;53.84
21824;BME280;11074;48.596;9.238;2023-04-24T12:22:51;97683.59;;;14.73;53.59
21824;BME280;11074;48.596;9.238;2023-04-24T12:25:19;97687.44;;;14.67;53.81
21824;BME280;11074;48.596;9.238;2023-04-24T12:27:51;97682.78;;;14.53;52.24
21824;BME280;11074;48.596;9.238;2023-04-24T12:30:17;97687.34;;;14.53;54.21
21824;BME280;11074;48.596;9.238;2023-04-24T12:32:45;97684.88;;;14.56;54.90
21824;BME280;11074;48.596;9.238;2023-04-24T12:35:12;97688.22;;;14.48;54.81
21824;BME280;11074;48.596;9.238;2023-04-24T12:37:38;97694.25;;;14.40;54.88
21824;BME280;11074;48.596;9.238;2023-04-24T12:40:10;97704.59;;;14.05;56.53
21824;BME280;11074;48.596;9.238;2023-04-24T12:42:49;97694.59;;;14.10;56.77
21824;BME280;11074;48.596;9.238;2023-04-24T12:45:17;97695.22;;;14.26;56.55
21824;BME280;11074;48.596;9.238;2023-04-24T12:47:45;97691.09;;;14.10;56.40
21824;BME280;11074;48.596;9.238;2023-04-24T12:50:14;97691.72;;;14.02;55.42
21824;BME280;11074;48.596;9.238;2023-04-24T12:52:40;97696.34;;;13.96;55.84
21824;BME280;11074;48.596;9.238;2023-04-24T12:55:07;97695.53;;;13.95;53.70
21824;BME280;11074;48.596;9.238;2023-04-24T12:57:36;97682.53;;;14.03;55.46
21824;BME280;11074;48.596;9.238;2023-04-24T13:00:04;97697.78;;;14.12;54.66
21824;BME280;11074;48.596;9.238;2023-04-24T13:02:31;97682.84;;;14.25;54.99
21824;BME280;11074;48.596;9.238;2023-04-24T13:04:58;97691.78;;;14.20;56.78
21824;BME280;11074;48.596;9.238;2023-04-24T13:07:25;97671.28;;;14.48;57.55
21824;BME280;11074;48.596;9.238;2023-04-24T13:09:52;97670.88;;;14.78;55.82
21824;BME280;11074;48.596;9.238;2023-04-24T13:12:18;97682.59;;;15.06;55.05